Terminal Aerodrome Forecast
Issued by NWS

Home | Current Version | Previous Version | Graphics & Text | Print | Product List | Glossary On
Versions: 1 2 3 4 5 6 7 8 9 10 11 12 13 14 15 16 17 18 19 20 21 22 23 24 25 26 27 28 29 30 31 32 33 34 35 36 37 38 39 40
000
FTUS43 KLOT 172300
TAFORD
TAF
KORD 172322Z 1800/1906 29014G25KT P6SM OVC025
     FM180200 32014G21KT P6SM BKN022 OVC035
     FM180900 34012G17KT P6SM OVC025
     FM181700 35013KT P6SM SCT025 BKN035
     FM182300 35007KT P6SM FEW030=

USA.gov is the U.S. government's official web portal to all federal, state and local government web resources and services.